Time;durP1;ratioP1;P1;durP2;ratioP2;P2;SDS_P1;SDS_P2;PMS_P1;PMS_P2;Temp;Humidity;BMP_temperature;BMP_pressure;BME280_temperature;BME280_humidity;BME280_pressure;Samples;Min_cycle;Max_cycle;Signal;HPM_P1;HPM_P2
2022/05/09 00:01:31;;;;;;;6.03;2.63;;;14.10;99.90;;;;;;5052811;28;20206;-50
2022/05/09 00:03:57;;;;;;;6.05;3.00;;;14.10;99.90;;;;;;5052308;28;20253;-50
2022/05/09 00:06:24;;;;;;;8.05;2.97;;;14.10;99.90;;;;;;5052380;28;20183;-51
2022/05/09 00:08:50;;;;;;;4.60;2.72;;;14.10;99.90;;;;;;5052455;28;20674;-49
2022/05/09 00:11:15;;;;;;;7.38;2.78;;;14.00;99.90;;;;;;5052579;28;20304;-48
2022/05/09 00:13:41;;;;;;;3.55;2.47;;;14.00;99.90;;;;;;5052413;28;20223;-50
2022/05/09 00:16:07;;;;;;;5.40;2.80;;;14.00;99.90;;;;;;5052537;28;20593;-49
2022/05/09 00:18:32;;;;;;;7.70;2.78;;;13.90;99.90;;;;;;5052212;28;20188;-49
2022/05/09 00:20:58;;;;;;;10.38;3.33;;;13.90;99.90;;;;;;5052188;28;20565;-50
2022/05/09 00:23:24;;;;;;;7.72;3.22;;;13.90;99.90;;;;;;5052203;28;20166;-50
2022/05/09 00:25:49;;;;;;;7.90;3.13;;;13.90;99.90;;;;;;5052185;28;20636;-50
2022/05/09 00:28:15;;;;;;;7.13;2.90;;;13.90;99.90;;;;;;5051991;28;20634;-47
2022/05/09 00:30:41;;;;;;;4.75;2.70;;;13.80;99.90;;;;;;5052317;28;20216;-48
2022/05/09 00:33:06;;;;;;;5.22;2.83;;;13.90;99.90;;;;;;5052284;28;20166;-51
2022/05/09 00:35:32;;;;;;;4.97;2.88;;;13.80;99.90;;;;;;5052271;28;20258;-51
2022/05/09 00:37:58;;;;;;;8.27;2.58;;;13.70;99.90;;;;;;5051967;28;20543;-50
2022/05/09 00:40:23;;;;;;;8.05;2.92;;;13.70;99.90;;;;;;5052009;28;20170;-49
2022/05/09 00:42:51;;;;;;;3.65;2.80;;;13.60;99.90;;;;;;5051939;28;20167;-51
2022/05/09 00:45:19;;;;;;;7.43;3.05;;;13.70;99.90;;;;;;5051788;28;20714;-48
2022/05/09 00:47:45;;;;;;;2.88;2.58;;;13.60;99.90;;;;;;5052035;28;20563;-48
2022/05/09 00:50:16;;;;;;;5.50;3.08;;;13.50;99.90;;;;;;5051829;28;20640;-48
2022/05/09 00:52:51;;;;;;;6.63;3.10;;;13.50;99.90;;;;;;5051830;28;20171;-50
2022/05/09 00:55:44;;;;;;;5.15;3.03;;;13.30;99.90;;;;;;5051850;28;20249;-49
2022/05/09 00:58:16;;;;;;;7.53;3.38;;;13.30;99.90;;;;;;5051790;28;20167;-49
2022/05/09 01:00:45;;;;;;;4.78;2.75;;;13.20;99.90;;;;;;5050618;28;20171;-50
2022/05/09 01:03:16;;;;;;;5.93;3.75;;;13.30;99.90;;;;;;5051729;28;20224;-48
2022/05/09 01:05:45;;;;;;;5.00;2.85;;;13.30;99.90;;;;;;5050456;28;20515;-49
2022/05/09 01:08:11;;;;;;;6.82;2.90;;;13.30;99.90;;;;;;5051908;28;20218;-49
2022/05/09 01:10:40;;;;;;;7.30;3.13;;;13.40;99.90;;;;;;5052018;28;20646;-51
2022/05/09 01:13:09;;;;;;;7.15;3.20;;;13.30;99.90;;;;;;5051910;28;20170;-51
2022/05/09 01:15:36;;;;;;;8.55;2.80;;;13.30;99.90;;;;;;5051831;28;20567;-51
2022/05/09 01:18:06;;;;;;;5.80;3.33;;;13.30;99.90;;;;;;5051568;28;20214;-51
2022/05/09 01:20:31;;;;;;;9.55;3.35;;;13.30;99.90;;;;;;5051859;28;20166;-49
2022/05/09 01:22:58;;;;;;;7.68;2.92;;;13.30;99.90;;;;;;5051578;28;20241;-51
2022/05/09 01:25:24;;;;;;;6.28;2.80;;;13.30;99.90;;;;;;5051490;28;20171;-51
2022/05/09 01:27:50;;;;;;;4.85;2.92;;;13.30;99.90;;;;;;5051655;28;20246;-50
2022/05/09 01:30:44;;;;;;;4.25;3.10;;;13.30;99.90;;;;;;5051738;28;20216;-51
2022/05/09 01:33:20;;;;;;;5.93;3.25;;;13.30;99.90;;;;;;5049136;28;20547;-49
2022/05/09 01:35:57;;;;;;;4.05;3.22;;;13.20;99.90;;;;;;5051443;28;20631;-52
2022/05/09 01:38:41;;;;;;;6.80;3.13;;;13.10;99.90;;;;;;5051417;28;20642;-50
2022/05/09 01:41:07;;;;;;;6.60;3.30;;;13.10;99.90;;;;;;5051753;28;20186;-50
2022/05/09 01:43:38;;;;;;;5.85;2.90;;;13.00;99.90;;;;;;5051345;28;20220;-48
2022/05/09 01:46:16;;;;;;;5.47;3.00;;;13.00;99.90;;;;;;5051793;28;20514;-48
2022/05/09 01:51:27;;;;;;;6.07;3.00;;;12.90;99.90;;;;;;5051546;28;20193;-49
2022/05/09 01:53:53;;;;;;;6.20;3.25;;;12.90;99.90;;;;;;5051312;28;20304;-47
2022/05/09 01:56:27;;;;;;;5.88;3.13;;;12.80;99.90;;;;;;5051381;28;20245;-47
2022/05/09 01:58:53;;;;;;;7.05;3.20;;;12.80;99.90;;;;;;5054736;28;20162;-51
2022/05/09 02:01:20;;;;;;;6.60;3.33;;;12.80;99.90;;;;;;5054793;28;20159;-51
2022/05/09 02:03:46;;;;;;;7.55;3.15;;;12.70;99.90;;;;;;5054610;28;20264;-49
2022/05/09 02:06:12;;;;;;;6.85;3.10;;;12.80;99.90;;;;;;5054618;28;20166;-50
2022/05/09 02:08:39;;;;;;;8.38;3.13;;;12.80;99.90;;;;;;5054591;28;20192;-48
2022/05/09 02:11:05;;;;;;;4.95;3.40;;;12.80;99.90;;;;;;5054878;28;20258;-50
2022/05/09 02:13:31;;;;;;;6.78;3.10;;;12.70;99.90;;;;;;5054584;28;20174;-49
2022/05/09 02:15:57;;;;;;;5.68;3.20;;;12.70;99.90;;;;;;5054506;28;20174;-50
2022/05/09 02:18:22;;;;;;;6.03;3.28;;;12.70;99.90;;;;;;5054447;28;20171;-50
2022/05/09 02:20:48;;;;;;;8.48;3.38;;;12.70;99.90;;;;;;5054695;28;20182;-51
2022/05/09 02:23:14;;;;;;;5.15;3.13;;;12.70;99.90;;;;;;5053190;28;20174;-49
2022/05/09 02:25:42;;;;;;;6.00;3.35;;;12.70;99.90;;;;;;5054443;28;20165;-51
2022/05/09 02:28:09;;;;;;;6.90;3.10;;;12.70;99.90;;;;;;5054690;28;20245;-48
2022/05/09 02:30:36;;;;;;;5.53;3.10;;;12.60;99.90;;;;;;5054709;28;20194;-50
2022/05/09 02:33:02;;;;;;;3.22;2.88;;;12.60;99.90;;;;;;5054253;28;20215;-49
2022/05/09 02:35:28;;;;;;;5.10;3.08;;;12.50;99.90;;;;;;5054152;28;20213;-50
2022/05/09 02:37:54;;;;;;;6.03;2.90;;;12.50;99.90;;;;;;5054113;28;20166;-49
2022/05/09 02:40:20;;;;;;;6.05;3.08;;;12.50;99.90;;;;;;5054374;28;20166;-48
2022/05/09 02:42:45;;;;;;;6.95;3.38;;;12.50;99.90;;;;;;5054035;28;20178;-48
2022/05/09 02:45:12;;;;;;;5.32;3.35;;;12.40;99.90;;;;;;5053982;28;20171;-49
2022/05/09 02:47:40;;;;;;;9.30;3.20;;;12.30;99.90;;;;;;5054120;28;20198;-49
2022/05/09 02:50:07;;;;;;;4.15;2.90;;;12.30;99.90;;;;;;5054414;28;20166;-49
2022/05/09 02:52:32;;;;;;;4.38;3.10;;;12.20;99.90;;;;;;5053850;28;20565;-51
2022/05/09 02:54:58;;;;;;;5.03;3.45;;;12.10;99.90;;;;;;5053782;28;20171;-50
2022/05/09 02:57:23;;;;;;;4.53;3.25;;;12.00;99.90;;;;;;5053759;28;20646;-50
2022/05/09 02:59:49;;;;;;;8.93;3.67;;;12.10;99.90;;;;;;5053818;28;20174;-48
2022/05/09 03:02:14;;;;;;;4.90;3.25;;;12.00;99.90;;;;;;5053538;28;20243;-49
2022/05/09 03:04:40;;;;;;;6.95;3.35;;;12.00;99.90;;;;;;5053636;28;20171;-48
2022/05/09 03:07:09;;;;;;;4.75;3.22;;;10.60;99.90;;;;;;5053870;28;20718;-48
2022/05/09 03:09:35;;;;;;;7.30;3.85;;;12.00;99.90;;;;;;5052906;28;20182;-49
2022/05/09 03:12:02;;;;;;;8.60;4.03;;;11.90;99.90;;;;;;5053752;28;20167;-51
2022/05/09 03:14:27;;;;;;;9.45;3.63;;;11.90;99.90;;;;;;5053345;28;20261;-48
2022/05/09 03:16:53;;;;;;;6.80;4.38;;;11.70;99.90;;;;;;5053639;28;20213;-47
2022/05/09 03:19:18;;;;;;;9.15;3.50;;;11.70;99.90;;;;;;5053374;28;20655;-47
2022/05/09 03:21:45;;;;;;;7.25;3.17;;;11.60;99.90;;;;;;5053258;28;20163;-50
2022/05/09 03:24:10;;;;;;;9.20;3.97;;;11.60;99.90;;;;;;5053471;28;20660;-50
2022/05/09 03:26:36;;;;;;;6.22;3.80;;;11.60;99.90;;;;;;5053454;28;20270;-48
2022/05/09 03:29:03;;;;;;;7.35;3.97;;;11.60;99.90;;;;;;5053159;28;20521;-50
2022/05/09 03:31:30;;;;;;;8.85;4.00;;;11.60;99.90;;;;;;5053038;28;20171;-50
2022/05/09 03:33:56;;;;;;;5.10;3.22;;;11.60;99.90;;;;;;5052997;28;20540;-50
2022/05/09 03:36:21;;;;;;;6.78;3.80;;;11.60;99.90;;;;;;5053004;28;20174;-50
2022/05/09 03:38:47;;;;;;;7.22;4.10;;;11.70;99.90;;;;;;5052998;28;20245;-51
2022/05/09 03:41:12;;;;;;;6.82;3.95;;;11.70;99.90;;;;;;5051555;28;20301;-47
2022/05/09 03:43:38;;;;;;;8.18;3.78;;;11.70;99.90;;;;;;5051998;28;20628;-50
2022/05/09 03:46:03;;;;;;;5.30;3.30;;;11.70;99.90;;;;;;5053226;28;20663;-48
2022/05/09 03:48:29;;;;;;;5.78;3.60;;;11.70;99.90;;;;;;5052987;28;20216;-47
2022/05/09 03:50:56;;;;;;;8.55;4.20;;;11.70;99.90;;;;;;5052570;28;20167;-50
2022/05/09 03:53:23;;;;;;;6.43;3.83;;;11.60;99.90;;;;;;5052866;28;20182;-50
2022/05/09 03:55:49;;;;;;;7.57;4.10;;;11.60;99.90;;;;;;5052989;28;20175;-51
2022/05/09 03:58:15;;;;;;;6.32;3.63;;;11.50;99.90;;;;;;5052563;28;20163;-51
2022/05/09 04:00:41;;;;;;;8.73;3.63;;;11.60;99.90;;;;;;5052752;28;20175;-48
2022/05/09 04:03:07;;;;;;;9.05;4.15;;;11.60;99.90;;;;;;5052789;28;20228;-49
2022/05/09 04:05:34;;;;;;;8.10;3.80;;;11.50;99.90;;;;;;5052708;28;20245;-49
2022/05/09 04:08:01;;;;;;;7.60;4.55;;;11.50;99.90;;;;;;5052483;28;20257;-51
2022/05/09 04:10:30;;;;;;;6.55;3.70;;;11.60;99.90;;;;;;5052329;28;20619;-49
2022/05/09 04:12:57;;;;;;;5.10;3.70;;;11.70;99.90;;;;;;5052397;28;20170;-51
2022/05/09 04:18:07;;;;;;;8.38;4.00;;;11.70;99.90;;;;;;5052770;28;20224;-49
2022/05/09 04:20:34;;;;;;;7.20;3.72;;;11.80;99.90;;;;;;5052120;28;20190;-50
2022/05/09 04:23:00;;;;;;;5.90;3.58;;;11.80;99.90;;;;;;5052193;28;20181;-50
2022/05/09 04:25:27;;;;;;;8.07;3.70;;;11.70;99.90;;;;;;5052162;28;20198;-51
2022/05/09 04:27:54;;;;;;;5.45;3.92;;;11.70;99.90;;;;;;5051986;28;20256;-51
2022/05/09 04:30:19;;;;;;;8.70;3.80;;;11.70;99.90;;;;;;5052376;28;20174;-50
2022/05/09 04:32:45;;;;;;;3.83;3.10;;;11.80;99.90;;;;;;5052003;28;20739;-50
2022/05/09 04:35:17;;;;;;;7.00;3.10;;;11.80;99.90;;;;;;5051942;28;20220;-50
2022/05/09 04:37:47;;;;;;;3.38;3.05;;;11.90;99.90;;;;;;5052272;28;20560;-50
2022/05/09 04:40:18;;;;;;;4.70;3.38;;;11.90;99.90;;;;;;5052130;28;20171;-47
2022/05/09 04:42:44;;;;;;;6.07;3.38;;;11.80;99.90;;;;;;5052008;28;20216;-48
2022/05/09 04:45:11;;;;;;;5.53;3.00;;;11.70;99.90;;;;;;5051933;28;20632;-49
2022/05/09 04:47:37;;;;;;;7.63;3.35;;;11.90;99.90;;;;;;5052394;28;20211;-48
2022/05/09 04:50:03;;;;;;;8.77;3.35;;;11.90;99.90;;;;;;5052088;28;20722;-48
2022/05/09 04:52:29;;;;;;;6.22;4.38;;;12.00;99.90;;;;;;5052160;28;20244;-51
2022/05/09 04:54:55;;;;;;;8.65;3.92;;;12.10;99.90;;;;;;5051903;28;20593;-49
2022/05/09 04:57:21;;;;;;;4.40;3.20;;;12.10;99.90;;;;;;5051825;28;20598;-49
2022/05/09 04:59:47;;;;;;;6.03;3.17;;;12.10;99.90;;;;;;5050489;28;20245;-49
2022/05/09 05:02:13;;;;;;;9.25;3.88;;;12.10;99.90;;;;;;5051673;28;20666;-50
2022/05/09 05:04:39;;;;;;;7.32;3.90;;;12.20;99.90;;;;;;5051745;28;20189;-47
2022/05/09 05:07:05;;;;;;;5.65;3.35;;;12.20;99.90;;;;;;5052034;28;20255;-47
2022/05/09 05:09:31;;;;;;;10.70;3.63;;;12.20;99.90;;;;;;5051535;28;20636;-50
2022/05/09 05:11:57;;;;;;;10.27;3.70;;;12.10;99.90;;;;;;5051824;28;20209;-48
2022/05/09 05:14:22;;;;;;;16.42;6.25;;;12.20;99.90;;;;;;5051646;28;20170;-47
2022/05/09 05:17:00;;;;;;;8.35;4.30;;;12.20;99.90;;;;;;5051620;28;20171;-48
2022/05/09 05:19:33;;;;;;;6.50;4.07;;;12.30;99.90;;;;;;5051793;28;20264;-48
2022/05/09 05:22:00;;;;;;;9.20;3.75;;;12.30;99.90;;;;;;5051493;28;20628;-49
2022/05/09 05:24:27;;;;;;;14.05;4.43;;;12.40;99.90;;;;;;5051841;28;20174;-49
2022/05/09 05:26:54;;;;;;;14.15;4.85;;;12.50;99.90;;;;;;5051731;28;20550;-48
2022/05/09 05:29:20;;;;;;;7.35;3.78;;;12.70;99.90;;;;;;5051527;28;20254;-47
2022/05/09 05:31:46;;;;;;;7.15;3.58;;;12.80;99.90;;;;;;5051828;28;20202;-48
2022/05/09 05:34:12;;;;;;;7.13;4.20;;;13.00;99.90;;;;;;5055241;28;20205;-48
2022/05/09 05:36:37;;;;;;;10.80;4.30;;;13.10;99.90;;;;;;5055544;28;20198;-47
2022/05/09 05:39:03;;;;;;;11.23;4.78;;;13.10;99.90;;;;;;5055496;28;20616;-48
2022/05/09 05:41:31;;;;;;;10.82;4.43;;;13.20;99.90;;;;;;5055105;28;20224;-47
2022/05/09 05:43:57;;;;;;;8.93;4.85;;;13.30;99.90;;;;;;5055238;28;20532;-48
2022/05/09 05:46:22;;;;;;;10.68;4.15;;;13.30;99.90;;;;;;5054852;28;20175;-47
2022/05/09 05:48:48;;;;;;;7.95;3.83;;;13.40;99.90;;;;;;5055016;28;20167;-47
2022/05/09 05:51:14;;;;;;;10.25;3.95;;;13.60;99.90;;;;;;5055032;28;20631;-47
2022/05/09 05:53:40;;;;;;;6.32;3.95;;;13.60;99.90;;;;;;5055228;28;20178;-46
2022/05/09 05:56:06;;;;;;;6.70;4.18;;;13.60;99.90;;;;;;5055312;28;20166;-49
2022/05/09 05:58:32;;;;;;;7.25;4.20;;;13.50;99.90;;;;;;5055117;28;20167;-49
2022/05/09 06:00:57;;;;;;;7.80;4.22;;;13.70;99.90;;;;;;5054721;28;20190;-47
2022/05/09 06:03:23;;;;;;;7.18;4.50;;;13.80;99.90;;;;;;5054717;28;20303;-47
2022/05/09 06:05:49;;;;;;;9.73;5.35;;;13.80;99.90;;;;;;5054661;28;20166;-49
2022/05/09 06:08:15;;;;;;;9.57;4.35;;;13.90;99.90;;;;;;5054878;28;20216;-49
2022/05/09 06:10:41;;;;;;;7.20;4.25;;;14.10;99.90;;;;;;5054589;28;20166;-50
2022/05/09 06:13:07;;;;;;;8.15;4.78;;;14.10;99.90;;;;;;5054871;28;20229;-47
2022/05/09 06:15:34;;;;;;;9.93;4.45;;;14.40;99.90;;;;;;5055035;28;20282;-47
2022/05/09 06:18:05;;;;;;;9.05;4.47;;;14.30;99.90;;;;;;5054465;28;20202;-48
2022/05/09 06:20:34;;;;;;;6.70;4.20;;;14.50;99.90;;;;;;5054638;28;20173;-50
2022/05/09 06:23:00;;;;;;;9.10;4.50;;;14.60;99.90;;;;;;5054444;28;20166;-50
2022/05/09 06:25:28;;;;;;;11.13;4.38;;;14.60;99.90;;;;;;5054576;28;20236;-49
2022/05/09 06:27:54;;;;;;;6.38;3.97;;;14.70;99.90;;;;;;5054119;28;20260;-47
2022/05/09 06:30:22;;;;;;;10.10;4.57;;;14.70;99.90;;;;;;5054306;28;20167;-48
2022/05/09 06:32:48;;;;;;;7.97;4.03;;;14.90;99.90;;;;;;5054257;28;20171;-49
2022/05/09 06:35:21;;;;;;;8.73;4.50;;;14.80;99.90;;;;;;5054397;28;20221;-47
2022/05/09 06:37:48;;;;;;;8.73;4.72;;;15.00;99.90;;;;;;5054084;28;20645;-49
2022/05/09 06:40:13;;;;;;;8.10;4.55;;;15.00;99.90;;;;;;5054175;28;20366;-47
2022/05/09 06:42:39;;;;;;;7.82;4.43;;;15.20;99.90;;;;;;5053795;28;20167;-47
2022/05/09 06:45:06;;;;;;;10.00;4.40;;;15.20;99.90;;;;;;5054309;28;20178;-47
2022/05/09 06:47:32;;;;;;;10.18;4.60;;;15.30;99.90;;;;;;5054135;28;20242;-47
2022/05/09 06:49:59;;;;;;;10.80;4.70;;;15.40;99.90;;;;;;5053994;28;20189;-47
2022/05/09 06:52:25;;;;;;;6.18;4.65;;;15.30;99.90;;;;;;5054072;28;20181;-50
2022/05/09 06:54:50;;;;;;;9.48;4.25;;;15.60;99.90;;;;;;5053831;28;20163;-49
2022/05/09 06:57:16;;;;;;;9.73;3.72;;;15.50;99.90;;;;;;5053827;28;20521;-48
2022/05/09 06:59:42;;;;;;;6.60;3.60;;;15.70;99.90;;;;;;5051731;28;20182;-48
2022/05/09 07:02:13;;;;;;;8.70;4.10;;;15.70;99.90;;;;;;5052731;28;20159;-49
2022/05/09 07:04:39;;;;;;;7.72;3.85;;;15.90;99.90;;;;;;5052354;28;20191;-47
2022/05/09 07:07:05;;;;;;;8.38;4.15;;;16.00;99.90;;;;;;5052640;28;20241;-47
2022/05/09 07:09:30;;;;;;;7.70;3.97;;;16.00;99.90;;;;;;5052321;28;20687;-46
2022/05/09 07:11:56;;;;;;;6.80;4.18;;;16.00;99.90;;;;;;5052191;28;20585;-47
2022/05/09 07:14:22;;;;;;;6.82;3.60;;;16.10;99.90;;;;;;5052156;28;20221;-47
2022/05/09 07:16:47;;;;;;;9.40;4.72;;;16.20;99.90;;;;;;5052287;28;20175;-46
2022/05/09 07:19:14;;;;;;;12.05;3.80;;;16.50;99.90;;;;;;5052051;28;20182;-46
2022/05/09 07:21:40;;;;;;;6.65;4.00;;;16.60;99.90;;;;;;5052181;28;20182;-47
2022/05/09 07:24:06;;;;;;;9.23;4.40;;;16.60;99.90;;;;;;5052188;28;20162;-48
2022/05/09 07:26:33;;;;;;;7.18;3.92;;;16.80;99.90;;;;;;5051769;28;20178;-46
2022/05/09 07:28:59;;;;;;;10.57;4.32;;;16.90;99.90;;;;;;5052077;28;20530;-45
2022/05/09 07:31:25;;;;;;;9.40;4.07;;;16.80;99.90;;;;;;5051709;28;20174;-45
2022/05/09 07:33:51;;;;;;;6.47;4.72;;;17.00;99.90;;;;;;5051936;28;20209;-50
2022/05/09 07:36:17;;;;;;;37.47;31.98;;;17.10;99.90;;;;;;5051827;28;20190;-44
2022/05/09 07:38:42;;;;;;;11.60;6.00;;;17.10;99.90;;;;;;5051582;28;20169;-49
2022/05/09 07:41:08;;;;;;;10.73;4.55;;;17.20;99.90;;;;;;5051561;28;20177;-49
2022/05/09 07:43:34;;;;;;;9.23;4.53;;;17.30;99.90;;;;;;5052090;28;20166;-45
2022/05/09 07:46:00;;;;;;;10.40;5.72;;;17.30;99.90;;;;;;5051435;28;20232;-48
2022/05/09 07:48:27;;;;;;;14.20;6.68;;;17.40;99.90;;;;;;5051587;28;20214;-45
2022/05/09 07:50:55;;;;;;;11.32;7.57;;;17.60;99.90;;;;;;5051424;28;20509;-48
2022/05/09 07:53:30;;;;;;;10.25;4.95;;;17.80;99.90;;;;;;5051379;28;20721;-47
2022/05/09 07:55:56;;;;;;;13.68;5.18;;;17.90;99.90;;;;;;5050994;28;20193;-50
2022/05/09 07:58:22;;;;;;;9.80;5.40;;;17.90;99.90;;;;;;5051452;28;20178;-48
2022/05/09 08:00:48;;;;;;;12.70;6.53;;;17.90;99.90;;;;;;5051476;28;20171;-47
2022/05/09 08:03:18;;;;;;;12.60;5.80;;;18.10;99.90;;;;;;5051219;28;20218;-53
2022/05/09 08:05:44;;;;;;;11.00;4.72;;;18.10;99.90;;;;;;5050863;28;20232;-49
2022/05/09 08:08:10;;;;;;;15.38;11.35;;;18.20;99.90;;;;;;5050970;28;20245;-51
2022/05/09 08:10:37;;;;;;;13.15;6.93;;;18.30;99.90;;;;;;5051335;28;20213;-48
2022/05/09 08:13:04;;;;;;;14.20;10.32;;;18.50;99.90;;;;;;5051110;28;20568;-44
2022/05/09 08:15:31;;;;;;;18.35;12.85;;;18.40;99.90;;;;;;5050946;28;20250;-55
2022/05/09 08:18:01;;;;;;;11.88;5.07;;;18.70;99.90;;;;;;5051095;28;20311;-44
2022/05/09 08:20:28;;;;;;;9.05;6.32;;;18.60;99.90;;;;;;5051148;28;20198;-47
2022/05/09 08:23:10;;;;;;;11.05;5.82;;;18.60;99.90;;;;;;5049890;28;20197;-48
2022/05/09 08:25:38;;;;;;;10.88;4.57;;;18.90;99.90;;;;;;5051277;28;20243;-49
2022/05/09 08:28:05;;;;;;;4.60;4.15;;;19.00;99.90;;;;;;5051348;28;20202;-51
2022/05/09 08:30:34;;;;;;;8.48;3.55;;;19.00;99.90;;;;;;5051082;28;20166;-50
2022/05/09 08:33:02;;;;;;;11.55;4.72;;;19.10;99.90;;;;;;5050772;28;20171;-47
2022/05/09 08:35:28;;;;;;;8.73;4.72;;;19.10;99.90;;;;;;5050924;28;20764;-47
2022/05/09 08:37:54;;;;;;;10.10;4.47;;;19.10;99.90;;;;;;5050662;28;20186;-50
2022/05/09 08:40:32;;;;;;;12.13;4.80;;;19.10;99.90;;;;;;5050885;28;20172;-47
2022/05/09 08:43:04;;;;;;;10.52;4.70;;;19.20;99.90;;;;;;5050542;28;20174;-49
2022/05/09 08:45:35;;;;;;;10.68;4.47;;;19.40;99.90;;;;;;5050513;28;20216;-48
2022/05/09 08:48:25;;;;;;;6.55;4.18;;;19.80;99.90;;;;;;5050451;28;20686;-48
2022/05/09 08:50:56;;;;;;;8.27;4.55;;;19.90;99.90;;;;;;5050766;28;20185;-48
2022/05/09 08:53:24;;;;;;;8.10;4.90;;;20.00;99.90;;;;;;5050405;28;20166;-47
2022/05/09 08:55:51;;;;;;;10.70;5.30;;;20.20;99.90;;;;;;5050594;28;20679;-47
2022/05/09 08:58:40;;;;;;;7.45;5.07;;;20.30;99.90;;;;;;5050793;28;20236;-47
2022/05/09 09:01:11;;;;;;;11.98;6.18;;;20.00;99.90;;;;;;5050758;28;20167;-47
2022/05/09 09:03:40;;;;;;;11.60;5.60;;;20.30;99.90;;;;;;5050440;28;20222;-48
2022/05/09 09:06:28;;;;;;;16.55;10.40;;;20.30;99.90;;;;;;5051664;28;20167;-48
2022/05/09 09:08:58;;;;;;;18.95;9.60;;;20.10;99.90;;;;;;5054496;28;20179;-48
2022/05/09 09:11:39;;;;;;;10.98;5.72;;;20.30;99.90;;;;;;5054598;28;20255;-46
2022/05/09 09:14:37;;;;;;;15.98;8.25;;;20.60;99.90;;;;;;5054739;28;20255;-49
2022/05/09 09:17:33;;;;;;;10.18;5.90;;;20.50;99.90;;;;;;5034707;28;20191;-48
2022/05/09 09:20:21;;;;;;;10.30;6.32;;;20.80;99.90;;;;;;5054585;28;20174;-49
2022/05/09 09:23:14;;;;;;;16.98;5.80;;;20.70;99.90;;;;;;5054103;28;20644;-49
2022/05/09 09:26:13;;;;;;;7.90;5.57;;;21.00;99.90;;;;;;5054044;28;20249;-49
2022/05/09 09:28:47;;;;;;;12.35;6.30;;;20.70;99.90;;;;;;5054029;28;20301;-48
2022/05/09 09:31:18;;;;;;;12.55;6.95;;;20.90;99.90;;;;;;5054076;28;20246;-48
2022/05/09 09:33:55;;;;;;;10.20;7.07;;;21.10;99.90;;;;;;5054299;28;20170;-47
2022/05/09 09:36:25;;;;;;;10.52;6.18;;;21.20;99.90;;;;;;5053963;28;20245;-48
2022/05/09 09:39:07;;;;;;;10.70;5.88;;;21.30;99.90;;;;;;5053985;28;20166;-48
2022/05/09 09:41:35;;;;;;;12.07;6.20;;;21.40;99.90;;;;;;5054354;28;20253;-49
2022/05/09 09:44:13;;;;;;;12.25;6.30;;;21.30;99.90;;;;;;5053785;28;20166;-48
2022/05/09 09:47:09;;;;;;;8.90;6.13;;;21.60;99.90;;;;;;5053963;28;20299;-48
2022/05/09 09:49:41;;;;;;;13.68;6.57;;;21.70;99.90;;;;;;5034481;28;20171;-48
2022/05/09 09:52:18;;;;;;;8.07;6.60;;;21.70;99.90;;;;;;5034202;28;20163;-48
2022/05/09 09:54:53;;;;;;;11.30;6.07;;;21.90;99.90;;;;;;5034047;28;20170;-47
2022/05/09 09:57:25;;;;;;;12.07;6.28;;;22.10;99.90;;;;;;5033705;28;20210;-49
2022/05/09 09:59:51;;;;;;;8.02;5.88;;;22.10;99.90;;;;;;5033682;28;20572;-47
2022/05/09 10:02:26;;;;;;;13.57;7.03;;;22.40;99.90;;;;;;5033399;28;20167;-48
2022/05/09 10:04:55;;;;;;;11.02;5.70;;;22.60;99.90;;;;;;5033795;28;20175;-49
2022/05/09 10:07:33;;;;;;;11.02;6.68;;;22.80;99.90;;;;;;5033671;28;20218;-48
2022/05/09 10:10:12;;;;;;;15.63;8.60;;;22.60;99.90;;;;;;5033780;28;20178;-48
2022/05/09 10:12:50;;;;;;;8.98;6.60;;;22.70;99.90;;;;;;5033543;28;20201;-46
2022/05/09 10:15:22;;;;;;;10.90;7.13;;;22.60;99.90;;;;;;5033527;28;20237;-47
2022/05/09 10:17:48;;;;;;;9.70;6.22;;;22.40;99.90;;;;;;5032748;28;20516;-47
2022/05/09 10:20:32;;;;;;;10.48;7.25;;;22.70;99.90;;;;;;5033267;28;20221;-47
2022/05/09 10:26:21;;;;;;;30.55;14.70;;;23.00;99.90;;;;;;5033739;28;20218;-47
2022/05/09 10:28:50;;;;;;;7.18;6.45;;;22.90;99.90;;;;;;5032747;28;20254;-47
2022/05/09 10:31:23;;;;;;;9.25;6.03;;;22.80;99.90;;;;;;5033023;28;20167;-48
2022/05/09 10:34:36;;;;;;;13.57;6.50;;;23.20;99.90;;;;;;5032949;28;20539;-49
2022/05/09 10:37:43;;;;;;;20.45;11.43;;;23.50;99.90;;;;;;5032880;28;20171;-49
2022/05/09 10:40:17;;;;;;;11.75;6.93;;;23.60;99.90;;;;;;5031668;28;20256;-47
2022/05/09 10:42:47;;;;;;;14.73;7.72;;;23.60;99.90;;;;;;5032829;28;20222;-47
2022/05/09 10:45:23;;;;;;;9.93;6.35;;;23.70;99.90;;;;;;5032795;28;20189;-47
2022/05/09 10:48:19;;;;;;;10.70;7.30;;;23.50;99.90;;;;;;5032625;28;20246;-49
2022/05/09 10:51:12;;;;;;;9.88;7.82;;;23.60;99.90;;;;;;5032730;28;20167;-49
2022/05/09 10:54:00;;;;;;;15.45;9.38;;;23.60;99.90;;;;;;5032956;28;20250;-47
2022/05/09 10:56:35;;;;;;;9.80;6.88;;;23.70;99.90;;;;;;5031323;28;20643;-48
2022/05/09 10:59:04;;;;;;;8.18;5.57;;;23.60;99.90;;;;;;5032491;28;20233;-46
2022/05/09 11:01:42;;;;;;;20.63;13.02;;;23.80;99.90;;;;;;5032569;28;20700;-48
2022/05/09 11:04:09;;;;;;;10.45;6.38;;;23.80;99.90;;;;;;5032688;28;20268;-46
2022/05/09 11:07:07;;;;;;;12.20;7.30;;;23.80;99.90;;;;;;5032606;28;20719;-47
2022/05/09 11:10:05;;;;;;;9.18;7.05;;;23.90;99.90;;;;;;5031074;28;20225;-48
2022/05/09 11:13:06;;;;;;;10.63;6.20;;;24.00;99.90;;;;;;5032262;28;20290;-48
2022/05/09 11:15:43;;;;;;;9.15;7.15;;;23.90;99.90;;;;;;5032243;28;20636;-51
2022/05/09 11:18:17;;;;;;;26.25;10.40;;;24.20;99.90;;;;;;5032153;28;20210;-48
2022/05/09 11:21:01;;;;;;;15.70;10.98;;;24.30;99.90;;;;;;5030926;28;20210;-48
2022/05/09 11:23:27;;;;;;;12.82;9.63;;;24.40;99.90;;;;;;5032076;28;20254;-50
2022/05/09 11:26:18;;;;;;;12.75;8.05;;;24.10;99.90;;;;;;5031961;28;20606;-50
2022/05/09 11:29:41;;;;;;;11.57;5.65;;;23.80;99.90;;;;;;5031868;28;20578;-48
2022/05/09 11:32:25;;;;;;;20.17;12.98;;;23.50;99.90;;;;;;5010311;28;20793;-48
2022/05/09 11:34:56;;;;;;;9.27;5.47;;;23.30;99.90;;;;;;5029867;28;20183;-49
2022/05/09 11:37:52;;;;;;;6.95;5.30;;;23.30;99.90;;;;;;5030480;28;20266;-48
2022/05/09 11:40:29;;;;;;;7.97;5.75;;;23.10;99.90;;;;;;5031745;28;20171;-47
2022/05/09 11:46:12;;;;;;;10.73;7.32;;;23.30;99.90;;;;;;5031659;28;20209;-47
2022/05/09 11:49:11;;;;;;;6.25;4.93;;;23.10;99.90;;;;;;5031874;28;20211;-47
2022/05/09 11:51:45;;;;;;;7.63;4.70;;;22.80;99.90;;;;;;5016687;28;20715;-49
2022/05/09 11:54:15;;;;;;;9.25;6.70;;;22.60;99.90;;;;;;5031455;28;20675;-49
2022/05/09 11:56:46;;;;;;;13.98;8.00;;;22.50;99.90;;;;;;5031378;28;20172;-48
2022/05/09 11:59:24;;;;;;;13.77;8.95;;;22.70;99.90;;;;;;5031594;28;20186;-48
2022/05/09 12:01:53;;;;;;;13.50;9.15;;;22.60;99.90;;;;;;5031419;28;20174;-47
2022/05/09 12:04:40;;;;;;;7.80;5.97;;;22.70;99.90;;;;;;5031139;28;20233;-48
2022/05/09 12:07:21;;;;;;;11.18;8.02;;;23.00;99.90;;;;;;5031724;28;20214;-44
2022/05/09 12:10:16;;;;;;;14.10;11.25;;;23.50;99.90;;;;;;5031506;28;20225;-50
2022/05/09 12:12:49;;;;;;;20.80;13.35;;;23.30;99.90;;;;;;5030140;28;20159;-48
2022/05/09 12:15:15;;;;;;;6.97;5.50;;;23.10;99.90;;;;;;5031402;28;20562;-46
2022/05/09 12:17:41;;;;;;;10.93;6.40;;;23.30;99.90;;;;;;5031141;28;20624;-46
2022/05/09 12:20:33;;;;;;;11.90;8.10;;;23.70;99.90;;;;;;5031477;28;20577;-45
2022/05/09 12:23:02;;;;;;;10.98;5.65;;;23.90;99.90;;;;;;5027269;28;20175;-45
2022/05/09 12:25:36;;;;;;;16.42;9.77;;;24.30;99.90;;;;;;5030934;28;20167;-44
2022/05/09 12:28:32;;;;;;;7.68;6.13;;;24.40;99.90;;;;;;5031060;28;20255;-43
2022/05/09 12:31:04;;;;;;;12.05;8.48;;;24.00;99.90;;;;;;5030792;28;20163;-45
2022/05/09 12:33:47;;;;;;;8.05;6.78;;;23.90;99.90;;;;;;5031027;28;20171;-48
2022/05/09 12:36:18;;;;;;;12.57;8.68;;;24.10;99.90;;;;;;5030871;28;20175;-51
2022/05/09 12:38:56;;;;;;;12.68;9.98;;;24.30;99.90;;;;;;5030663;28;20198;-50
2022/05/09 12:41:56;;;;;;;7.18;5.80;;;24.30;99.90;;;;;;5030421;28;20182;-51
2022/05/09 12:44:35;;;;;;;12.50;9.60;;;23.90;99.90;;;;;;5046814;28;20178;-52
2022/05/09 12:47:05;;;;;;;8.88;6.68;;;23.70;99.90;;;;;;5050405;28;20551;-51
2022/05/09 12:49:35;;;;;;;9.00;5.78;;;23.60;99.90;;;;;;5049399;28;20170;-55
2022/05/09 12:52:01;;;;;;;9.85;6.10;;;23.90;99.90;;;;;;5050786;28;20170;-51
2022/05/09 12:54:28;;;;;;;6.93;6.28;;;24.00;99.90;;;;;;5050582;28;20654;-53
2022/05/09 12:56:59;;;;;;;7.13;5.40;;;23.80;99.90;;;;;;5050537;28;20256;-53
2022/05/09 12:59:43;;;;;;;9.77;5.40;;;23.70;99.90;;;;;;5050733;28;20511;-52
2022/05/09 13:02:08;;;;;;;8.38;4.72;;;23.70;99.90;;;;;;5050399;28;20162;-53
2022/05/09 13:04:39;;;;;;;8.50;5.20;;;23.70;99.90;;;;;;5050568;28;20411;-54
2022/05/09 13:07:07;;;;;;;8.48;4.70;;;23.70;99.90;;;;;;5050960;28;20257;-54
2022/05/09 13:09:47;;;;;;;11.57;5.50;;;23.60;99.90;;;;;;5050888;28;20201;-52
2022/05/09 13:12:29;;;;;;;8.30;4.63;;;23.70;99.90;;;;;;5050408;28;20166;-51
2022/05/09 13:14:59;;;;;;;7.32;4.93;;;23.80;99.90;;;;;;5050330;28;20177;-54